createdAt,value
2023-03-13T00:04:26.124Z,0.00
2023-03-13T00:09:26.018Z,0.00
2023-03-13T00:14:25.976Z,0.00
2023-03-13T00:19:25.894Z,0.00
2023-03-13T00:24:25.807Z,0.00
2023-03-13T00:29:25.734Z,0.00
2023-03-13T00:34:25.674Z,0.00
2023-03-13T00:39:25.630Z,0.00
2023-03-13T00:44:25.541Z,0.00
2023-03-13T00:49:25.477Z,0.00
2023-03-13T00:54:25.408Z,0.00
2023-03-13T00:59:25.342Z,0.00
2023-03-13T01:04:25.267Z,0.00
2023-03-13T01:09:25.215Z,0.00
2023-03-13T01:14:25.131Z,0.00
2023-03-13T01:19:25.094Z,0.00
2023-03-13T01:24:25.063Z,0.00
2023-03-13T01:29:24.972Z,0.00
2023-03-13T01:34:24.936Z,0.00
2023-03-13T01:39:24.820Z,0.00
2023-03-13T01:44:24.762Z,0.00
2023-03-13T01:49:24.692Z,0.00
2023-03-13T01:54:24.617Z,0.00
2023-03-13T01:59:24.551Z,0.00
2023-03-13T02:04:24.520Z,0.00
2023-03-13T02:09:24.434Z,0.00
2023-03-13T02:14:24.360Z,0.00
2023-03-13T02:19:24.319Z,0.00
2023-03-13T02:24:24.257Z,0.00
2023-03-13T02:29:24.197Z,0.00
2023-03-13T02:34:24.089Z,0.00
2023-03-13T02:39:24.018Z,0.00
2023-03-13T02:44:23.945Z,0.00
2023-03-13T02:49:23.921Z,0.00
2023-03-13T02:54:23.853Z,0.00
2023-03-13T02:59:23.778Z,0.00
2023-03-13T03:04:23.756Z,0.00
2023-03-13T03:09:23.626Z,0.00
2023-03-13T03:14:23.566Z,0.00
2023-03-13T03:19:23.495Z,0.00
2023-03-13T03:24:23.772Z,0.00
2023-03-13T03:29:23.347Z,0.00
2023-03-13T03:34:23.280Z,0.00
2023-03-13T03:39:23.221Z,0.00
2023-03-13T03:44:23.117Z,0.00
2023-03-13T03:49:23.058Z,0.00
2023-03-13T03:54:22.979Z,0.00
2023-03-13T03:59:22.974Z,0.00
2023-03-13T04:04:22.868Z,0.00
2023-03-13T04:09:22.793Z,0.00
2023-03-13T04:14:22.729Z,0.00
2023-03-13T04:19:22.669Z,0.00
2023-03-13T04:24:22.564Z,0.00
2023-03-13T04:29:22.525Z,0.00
2023-03-13T04:34:22.437Z,0.00
2023-03-13T04:39:22.419Z,0.00
2023-03-13T04:44:22.301Z,0.00
2023-03-13T04:49:22.254Z,0.00
2023-03-13T04:54:22.163Z,0.00
2023-03-13T04:59:22.124Z,0.00
2023-03-13T05:04:22.055Z,0.00
2023-03-13T05:09:22.301Z,0.00
2023-03-13T05:14:21.946Z,0.00
2023-03-13T05:19:21.909Z,0.00
2023-03-13T05:24:21.760Z,5.62
2023-03-13T05:29:21.790Z,11.25
2023-03-13T05:34:21.643Z,22.50
2023-03-13T05:39:21.558Z,22.50
2023-03-13T05:44:21.509Z,28.12
2023-03-13T05:49:21.421Z,56.25
2023-03-13T05:54:21.357Z,78.75
2023-03-13T05:59:21.293Z,112.50
2023-03-13T06:04:21.376Z,146.25
2023-03-13T06:09:21.150Z,151.88
2023-03-13T06:14:21.104Z,135.00
2023-03-13T06:19:21.030Z,135.00
2023-03-13T06:24:20.939Z,135.00
2023-03-13T06:29:20.926Z,123.75
2023-03-13T06:34:20.853Z,73.12
2023-03-13T06:39:20.748Z,61.88
2023-03-13T06:44:20.679Z,73.12
2023-03-13T06:49:20.588Z,95.62
2023-03-13T06:54:20.551Z,118.12
2023-03-13T06:59:20.498Z,180.00
2023-03-13T07:04:20.441Z,196.88
2023-03-13T07:09:20.326Z,225.00
2023-03-13T07:14:20.268Z,202.50
2023-03-13T07:19:20.206Z,309.38
2023-03-13T07:24:20.218Z,354.38
2023-03-13T07:29:20.059Z,253.12
2023-03-13T07:34:19.985Z,180.00
2023-03-13T07:39:19.924Z,196.88
2023-03-13T07:44:19.865Z,168.75
2023-03-13T07:49:19.801Z,163.12
2023-03-13T07:54:19.725Z,286.88
2023-03-13T07:59:19.654Z,236.25
2023-03-13T08:04:19.598Z,219.38
2023-03-13T08:09:19.497Z,247.50
2023-03-13T08:14:19.417Z,270.00
2023-03-13T08:19:19.396Z,292.50
2023-03-13T08:24:19.287Z,348.75
2023-03-13T08:29:19.194Z,331.88
2023-03-13T08:34:19.151Z,270.00
2023-03-13T08:39:19.082Z,483.75
2023-03-13T08:44:19.001Z,326.25
2023-03-13T08:49:18.960Z,388.12
2023-03-13T08:54:18.890Z,990.00
2023-03-13T08:59:18.809Z,832.50
2023-03-13T09:04:18.769Z,714.38
2023-03-13T09:09:18.676Z,753.75
2023-03-13T09:14:18.607Z,905.62
2023-03-13T09:19:18.538Z,961.88
2023-03-13T09:24:18.469Z,911.25
2023-03-13T09:29:18.424Z,973.12
2023-03-13T09:34:19.294Z,1305.00
2023-03-13T09:39:18.307Z,1108.12
2023-03-13T09:44:18.217Z,703.12
2023-03-13T09:49:18.547Z,691.88
2023-03-13T09:54:18.100Z,635.62
2023-03-13T09:59:18.068Z,742.50
2023-03-13T10:04:17.993Z,1080.00
2023-03-13T10:09:17.968Z,781.88
2023-03-13T10:14:17.835Z,545.62
2023-03-13T10:19:17.775Z,759.38
2023-03-13T10:24:17.720Z,618.75
2023-03-13T10:29:17.657Z,675.00
2023-03-13T10:34:17.601Z,736.88
2023-03-13T10:39:17.532Z,759.38
2023-03-13T10:44:17.460Z,686.25
2023-03-13T10:49:17.419Z,1226.25
2023-03-13T10:54:17.346Z,916.88
2023-03-13T10:59:17.262Z,990.00
2023-03-13T11:04:17.203Z,900.00
2023-03-13T11:09:17.161Z,714.38
2023-03-13T11:14:17.099Z,776.25
2023-03-13T11:19:17.035Z,798.75
2023-03-13T11:24:16.957Z,905.62
2023-03-13T11:29:16.903Z,1080.00
2023-03-13T11:34:16.833Z,900.00
2023-03-13T11:39:16.755Z,905.62
2023-03-13T11:44:16.684Z,781.88
2023-03-13T11:49:16.648Z,933.75
2023-03-13T11:54:16.561Z,1051.88
2023-03-13T11:59:16.514Z,703.12
2023-03-13T12:04:16.466Z,568.12
2023-03-13T12:09:16.396Z,888.75
2023-03-13T12:14:16.319Z,669.38
2023-03-13T12:19:16.242Z,416.25
2023-03-13T12:24:16.232Z,489.38
2023-03-13T12:29:16.139Z,590.62
2023-03-13T12:34:16.056Z,810.00
2023-03-13T12:39:16.032Z,871.88
2023-03-13T12:44:15.925Z,810.00
2023-03-13T12:49:15.913Z,1215.00
2023-03-13T12:54:15.951Z,832.50
2023-03-13T12:59:15.733Z,928.12
2023-03-13T13:04:15.762Z,1411.88
2023-03-13T13:09:15.635Z,1417.50
2023-03-13T13:14:15.538Z,1338.75
2023-03-13T13:19:15.466Z,1198.12
2023-03-13T13:24:15.448Z,939.38
2023-03-13T13:29:15.345Z,798.75
2023-03-13T13:34:15.365Z,838.12
2023-03-13T13:39:15.247Z,928.12
2023-03-13T13:44:15.194Z,956.25
2023-03-13T13:49:15.092Z,1299.38
2023-03-13T13:54:15.038Z,838.12
2023-03-13T13:59:14.999Z,888.75
2023-03-13T14:04:14.933Z,871.88
2023-03-13T14:09:14.874Z,933.75
2023-03-13T14:14:14.783Z,1327.50
2023-03-13T14:19:14.749Z,815.62
2023-03-13T14:24:14.671Z,748.12
2023-03-13T14:29:14.684Z,765.00
2023-03-13T14:34:14.543Z,1029.38
2023-03-13T14:39:14.488Z,731.25
2023-03-13T14:44:14.416Z,877.50
2023-03-13T14:49:14.409Z,703.12
2023-03-13T14:54:14.265Z,703.12
2023-03-13T14:59:14.211Z,613.12
2023-03-13T15:04:14.270Z,528.75
2023-03-13T15:09:14.106Z,540.00
2023-03-13T15:14:14.012Z,646.88
2023-03-13T15:19:13.989Z,568.12
2023-03-13T15:24:13.906Z,523.12
2023-03-13T15:29:13.872Z,455.62
2023-03-13T15:34:13.828Z,455.62
2023-03-13T15:39:13.709Z,506.25
2023-03-13T15:44:13.627Z,421.88
2023-03-13T15:49:13.632Z,388.12
2023-03-13T15:54:13.555Z,343.12
2023-03-13T15:59:13.451Z,286.88
2023-03-13T16:04:13.424Z,264.38
2023-03-13T16:09:13.337Z,309.38
2023-03-13T16:14:13.267Z,354.38
2023-03-13T16:19:13.203Z,315.00
2023-03-13T16:24:13.148Z,253.12
2023-03-13T16:29:13.089Z,236.25
2023-03-13T16:34:13.182Z,191.25
2023-03-13T16:39:12.968Z,129.38
2023-03-13T16:44:12.891Z,101.25
2023-03-13T16:49:12.823Z,84.38
2023-03-13T16:54:12.747Z,61.88
2023-03-13T16:59:12.710Z,45.00
2023-03-13T17:04:12.753Z,33.75
2023-03-13T17:09:12.585Z,22.50
2023-03-13T17:14:12.480Z,11.25
2023-03-13T17:19:12.457Z,5.62
2023-03-13T17:24:12.419Z,0.00
2023-03-13T17:29:12.334Z,0.00
2023-03-13T17:34:12.261Z,0.00
2023-03-13T17:39:12.185Z,0.00
2023-03-13T17:44:12.096Z,0.00
2023-03-13T17:49:12.057Z,0.00
2023-03-13T17:54:14.424Z,0.00
2023-03-13T17:59:11.927Z,0.00
2023-03-13T18:04:11.883Z,0.00
2023-03-13T18:09:11.786Z,0.00
2023-03-13T18:14:11.718Z,0.00
2023-03-13T18:19:11.693Z,0.00
2023-03-13T18:24:11.621Z,0.00
2023-03-13T18:29:11.553Z,0.00
2023-03-13T18:34:11.486Z,0.00
2023-03-13T18:39:11.456Z,0.00
2023-03-13T18:44:11.345Z,0.00
2023-03-13T18:49:11.311Z,0.00
2023-03-13T18:54:11.220Z,0.00
2023-03-13T18:59:11.180Z,0.00
2023-03-13T19:04:11.108Z,0.00
2023-03-13T19:09:31.687Z,0.00
2023-03-13T19:14:11.982Z,0.00
2023-03-13T19:19:10.906Z,0.00
2023-03-13T19:24:10.868Z,0.00
2023-03-13T19:29:10.807Z,0.00
2023-03-13T19:34:10.756Z,0.00
2023-03-13T19:39:10.667Z,0.00
2023-03-13T19:44:10.583Z,0.00
2023-03-13T19:49:10.540Z,0.00
2023-03-13T19:54:10.453Z,0.00
2023-03-13T19:59:10.407Z,0.00
2023-03-13T20:04:10.336Z,0.00
2023-03-13T20:09:10.278Z,0.00
2023-03-13T20:14:10.225Z,0.00
2023-03-13T20:19:10.157Z,0.00
2023-03-13T20:24:10.101Z,0.00
2023-03-13T20:29:10.022Z,0.00
2023-03-13T20:34:09.992Z,0.00
2023-03-13T20:39:09.947Z,0.00
2023-03-13T20:44:09.857Z,0.00
2023-03-13T20:49:09.760Z,0.00
2023-03-13T20:54:09.757Z,0.00
2023-03-13T20:59:09.654Z,0.00
2023-03-13T21:04:09.586Z,0.00
2023-03-13T21:09:09.522Z,0.00
2023-03-13T21:14:09.480Z,0.00
2023-03-13T21:19:09.407Z,0.00
2023-03-13T21:24:09.346Z,0.00
2023-03-13T21:29:09.258Z,0.00
2023-03-13T21:34:09.224Z,0.00
2023-03-13T21:39:09.146Z,0.00
2023-03-13T21:44:09.063Z,0.00
2023-03-13T21:49:09.037Z,0.00
2023-03-13T21:54:08.949Z,0.00
2023-03-13T21:59:08.866Z,0.00
2023-03-13T22:04:08.840Z,0.00
2023-03-13T22:09:08.777Z,0.00
2023-03-13T22:14:08.699Z,0.00
2023-03-13T22:19:08.634Z,0.00
2023-03-13T22:24:10.164Z,0.00
2023-03-13T22:29:08.516Z,0.00
2023-03-13T22:34:08.464Z,0.00
2023-03-13T22:39:08.389Z,0.00
2023-03-13T22:44:08.325Z,0.00
2023-03-13T22:49:08.262Z,0.00
2023-03-13T22:54:08.211Z,0.00
2023-03-13T22:59:08.134Z,0.00
2023-03-13T23:04:08.057Z,0.00
2023-03-13T23:09:08.009Z,0.00
2023-03-13T23:14:07.935Z,0.00
2023-03-13T23:19:07.860Z,0.00
2023-03-13T23:24:07.800Z,0.00
2023-03-13T23:29:07.747Z,0.00
2023-03-13T23:34:07.702Z,0.00
2023-03-13T23:39:07.629Z,0.00
2023-03-13T23:44:07.582Z,0.00
2023-03-13T23:49:07.489Z,0.00
2023-03-13T23:54:07.424Z,0.00
2023-03-13T23:59:07.367Z,0.00
